Time;durP1;ratioP1;P1;durP2;ratioP2;P2;SDS_P1;SDS_P2;PMS_P1;PMS_P2;Temp;Humidity;BMP_temperature;BMP_pressure;BME280_temperature;BME280_humidity;BME280_pressure;Samples;Min_cycle;Max_cycle;Signal;HPM_P1;HPM_P2
2021/07/10 00:00:19;;;;;;;14.50;13.50;;;23.60;99.90;;;;;;3535348;40;20478;-61
2021/07/10 00:02:47;;;;;;;14.20;13.30;;;23.60;99.90;;;;;;3535132;40;20495;-60
2021/07/10 00:05:16;;;;;;;15.70;14.40;;;23.60;99.90;;;;;;3534947;40;20451;-61
2021/07/10 00:07:46;;;;;;;15.73;14.53;;;23.60;99.90;;;;;;3534792;40;20466;-61
2021/07/10 00:10:18;;;;;;;15.60;14.47;;;23.60;99.90;;;;;;3535433;40;20479;-61
2021/07/10 00:12:46;;;;;;;16.40;15.30;;;23.60;99.90;;;;;;3534885;40;20494;-61
2021/07/10 00:15:15;;;;;;;16.50;15.40;;;23.60;99.90;;;;;;3533313;40;20443;-61
2021/07/10 00:17:42;;;;;;;15.43;14.33;;;23.60;99.90;;;;;;3534469;40;20497;-61
2021/07/10 00:20:11;;;;;;;14.17;13.27;;;23.60;99.90;;;;;;3535344;40;20486;-60
2021/07/10 00:22:39;;;;;;;15.30;14.17;;;23.60;99.90;;;;;;3535644;40;20488;-61
2021/07/10 00:25:10;;;;;;;14.40;13.50;;;23.60;99.90;;;;;;3534886;40;20471;-61
2021/07/10 00:27:39;;;;;;;16.97;15.77;;;23.60;99.90;;;;;;3535217;40;20462;-61
2021/07/10 00:30:08;;;;;;;15.20;14.10;;;23.60;99.90;;;;;;3534780;40;20517;-61
2021/07/10 00:32:35;;;;;;;15.43;14.33;;;23.60;99.90;;;;;;3534354;40;20636;-61
2021/07/10 00:35:03;;;;;;;15.17;14.07;;;23.60;99.90;;;;;;3534613;40;20545;-61
2021/07/10 00:37:30;;;;;;;16.17;15.07;;;23.60;99.90;;;;;;3535083;40;21312;-61
2021/07/10 00:39:57;;;;;;;15.90;14.70;;;23.60;99.90;;;;;;3534483;40;20803;-61
2021/07/10 00:42:26;;;;;;;15.30;14.30;;;23.60;99.90;;;;;;3535460;40;20472;-61
2021/07/10 00:44:53;;;;;;;15.87;14.70;;;23.60;99.90;;;;;;3535354;40;20865;-61
2021/07/10 00:47:20;;;;;;;16.20;15.07;;;23.60;99.90;;;;;;3534598;40;20459;-60
2021/07/10 00:49:48;;;;;;;15.80;14.77;;;23.60;99.90;;;;;;3533013;40;20470;-61
2021/07/10 00:52:15;;;;;;;15.70;14.60;;;23.60;99.90;;;;;;3535201;40;20466;-61
2021/07/10 00:54:42;;;;;;;15.77;14.47;;;23.60;99.90;;;;;;3535809;40;20455;-61
2021/07/10 00:57:10;;;;;;;14.43;13.53;;;23.60;99.90;;;;;;3526126;40;20481;-61
2021/07/10 00:59:41;;;;;;;14.70;13.63;;;23.60;99.90;;;;;;3534866;40;20527;-61
2021/07/10 01:02:09;;;;;;;14.37;13.37;;;23.60;99.90;;;;;;3534022;40;20498;-61
2021/07/10 01:04:36;;;;;;;14.47;13.57;;;23.60;99.90;;;;;;3534620;40;20451;-61
2021/07/10 01:07:03;;;;;;;14.77;13.80;;;23.60;99.90;;;;;;3534973;40;21032;-61
2021/07/10 01:09:32;;;;;;;15.03;13.93;;;23.60;99.90;;;;;;3534954;40;20466;-59
2021/07/10 01:11:59;;;;;;;14.93;13.93;;;23.60;99.90;;;;;;3535664;40;20458;-61
2021/07/10 01:14:27;;;;;;;16.10;15.00;;;23.60;99.90;;;;;;3535476;40;20855;-61
2021/07/10 01:16:55;;;;;;;14.37;13.47;;;23.60;99.90;;;;;;3534558;40;20567;-61
2021/07/10 01:19:25;;;;;;;14.67;13.70;;;23.60;99.90;;;;;;3535100;40;20455;-60
2021/07/10 01:21:54;;;;;;;13.40;12.60;;;23.60;99.90;;;;;;3535819;40;20481;-61
2021/07/10 01:24:21;;;;;;;14.70;13.60;;;23.60;99.90;;;;;;3535772;40;20471;-60
2021/07/10 01:26:49;;;;;;;15.03;14.03;;;23.60;99.90;;;;;;3535569;40;20829;-61
2021/07/10 01:29:16;;;;;;;13.93;13.13;;;23.60;99.90;;;;;;3533837;40;20474;-61
2021/07/10 01:31:44;;;;;;;15.83;14.73;;;23.60;99.90;;;;;;3534492;40;20569;-61
2021/07/10 01:34:11;;;;;;;14.27;13.37;;;23.60;99.90;;;;;;3535202;40;20546;-60
2021/07/10 01:36:41;;;;;;;15.00;14.00;;;23.60;99.90;;;;;;3535199;40;20462;-61
2021/07/10 01:39:10;;;;;;;15.03;14.10;;;23.60;99.90;;;;;;3534789;40;20510;-61
2021/07/10 01:41:45;;;;;;;14.63;13.70;;;23.60;99.90;;;;;;3534309;40;20539;-61
2021/07/10 01:44:13;;;;;;;14.40;13.50;;;23.60;99.90;;;;;;3534754;40;20818;-60
2021/07/10 01:46:41;;;;;;;14.97;13.97;;;23.60;99.90;;;;;;3535317;40;20885;-60
2021/07/10 01:49:08;;;;;;;14.23;13.33;;;23.60;99.90;;;;;;3534470;40;20469;-61
2021/07/10 01:51:36;;;;;;;14.20;13.30;;;23.60;99.90;;;;;;3525637;40;20451;-61
2021/07/10 01:54:03;;;;;;;13.60;12.80;;;23.60;99.90;;;;;;3535470;40;20466;-61
2021/07/10 01:56:32;;;;;;;14.77;13.77;;;23.60;99.80;;;;;;3536674;40;20463;-61
2021/07/10 01:59:00;;;;;;;13.50;12.60;;;23.60;99.90;;;;;;3536065;40;20470;-60
2021/07/10 02:01:27;;;;;;;13.47;12.67;;;23.60;99.90;;;;;;3535795;40;20481;-60
2021/07/10 02:03:54;;;;;;;14.47;13.57;;;23.60;99.90;;;;;;3536805;40;20474;-61
2021/07/10 02:06:22;;;;;;;15.63;14.43;;;23.60;99.80;;;;;;3536107;40;20455;-61
2021/07/10 02:08:49;;;;;;;13.87;12.97;;;23.60;99.80;;;;;;3536111;40;20463;-60
2021/07/10 02:11:17;;;;;;;14.20;13.30;;;23.60;99.80;;;;;;3534999;40;20450;-61
2021/07/10 02:13:45;;;;;;;13.70;12.83;;;23.60;99.80;;;;;;3534728;40;20470;-61
2021/07/10 02:16:13;;;;;;;13.83;13.00;;;23.60;99.80;;;;;;3534842;40;20470;-61
2021/07/10 02:18:41;;;;;;;14.60;13.70;;;23.60;99.80;;;;;;3535254;40;20454;-61
2021/07/10 02:21:09;;;;;;;14.10;13.20;;;23.60;99.80;;;;;;3535893;40;20568;-61
2021/07/10 02:23:36;;;;;;;13.20;12.40;;;23.60;99.80;;;;;;3536267;40;20491;-61
2021/07/10 02:26:04;;;;;;;14.07;13.07;;;23.60;99.80;;;;;;3536143;40;20859;-61
2021/07/10 02:28:31;;;;;;;15.17;14.17;;;23.60;99.80;;;;;;3536260;40;20462;-61
2021/07/10 02:31:00;;;;;;;13.13;12.37;;;23.60;99.80;;;;;;3535905;40;20485;-61
2021/07/10 02:33:27;;;;;;;14.47;13.57;;;23.60;99.70;;;;;;3536431;40;20482;-61
2021/07/10 02:35:54;;;;;;;13.30;12.50;;;23.60;99.80;;;;;;3537154;40;20466;-61
2021/07/10 02:38:22;;;;;;;16.00;14.90;;;23.60;99.70;;;;;;3527179;40;20876;-61
2021/07/10 02:40:49;;;;;;;15.23;14.13;;;23.60;99.70;;;;;;3536295;40;20498;-60
2021/07/10 02:43:16;;;;;;;15.00;14.00;;;23.60;99.70;;;;;;3536328;40;20491;-61
2021/07/10 02:45:44;;;;;;;15.80;14.80;;;23.60;99.70;;;;;;3536597;40;20455;-61
2021/07/10 02:48:13;;;;;;;15.30;14.30;;;23.60;99.70;;;;;;3536791;40;20482;-61
2021/07/10 02:50:41;;;;;;;13.93;13.13;;;23.60;99.70;;;;;;3536446;40;20507;-61
2021/07/10 02:53:09;;;;;;;14.50;13.60;;;23.60;99.70;;;;;;3536147;40;20461;-61
2021/07/10 02:55:37;;;;;;;15.20;14.20;;;23.60;99.70;;;;;;3535685;40;20541;-61
2021/07/10 02:58:05;;;;;;;14.43;13.50;;;23.60;99.70;;;;;;3534952;40;20506;-61
2021/07/10 03:00:33;;;;;;;15.17;14.17;;;23.60;99.70;;;;;;3535387;40;21098;-61
2021/07/10 03:03:01;;;;;;;14.83;13.83;;;23.60;99.70;;;;;;3534985;40;20530;-61
2021/07/10 03:05:31;;;;;;;14.80;13.60;;;23.60;99.60;;;;;;3535649;40;21023;-61
2021/07/10 03:07:58;;;;;;;15.40;14.40;;;23.60;99.60;;;;;;3535939;40;20705;-61
2021/07/10 03:10:27;;;;;;;15.50;14.50;;;23.60;99.60;;;;;;3536452;40;20470;-61
2021/07/10 03:12:55;;;;;;;14.83;13.93;;;23.60;99.60;;;;;;3536054;40;20518;-60
2021/07/10 03:15:22;;;;;;;15.80;14.80;;;23.60;99.60;;;;;;3535693;40;20534;-61
2021/07/10 03:17:50;;;;;;;15.13;14.17;;;23.60;99.60;;;;;;3535949;40;20854;-60
2021/07/10 03:20:19;;;;;;;16.20;15.07;;;23.60;99.60;;;;;;3535126;40;20477;-60
2021/07/10 03:22:49;;;;;;;15.87;14.93;;;23.60;99.60;;;;;;3535089;40;20483;-61
2021/07/10 03:25:17;;;;;;;15.23;14.33;;;23.60;99.60;;;;;;3536196;40;20462;-61
2021/07/10 03:27:46;;;;;;;14.83;13.93;;;23.60;99.60;;;;;;3535282;40;20462;-61
2021/07/10 03:30:17;;;;;;;14.97;14.07;;;23.60;99.60;;;;;;3534894;40;20474;-61
2021/07/10 03:32:45;;;;;;;15.70;14.60;;;23.60;99.60;;;;;;3535501;40;20462;-61
2021/07/10 03:35:14;;;;;;;16.00;14.90;;;23.60;99.50;;;;;;3535109;40;20455;-61
2021/07/10 03:37:42;;;;;;;14.30;13.40;;;23.60;99.50;;;;;;3536129;40;20870;-61
2021/07/10 03:40:12;;;;;;;15.23;14.23;;;23.60;99.50;;;;;;3535853;40;20467;-60
2021/07/10 03:42:41;;;;;;;14.97;14.07;;;23.60;99.60;;;;;;3536122;40;20574;-61
2021/07/10 03:45:10;;;;;;;14.47;13.53;;;23.60;99.50;;;;;;3535384;40;20717;-61
2021/07/10 03:47:38;;;;;;;14.57;13.67;;;23.60;99.50;;;;;;3534673;40;20865;-61
2021/07/10 03:50:08;;;;;;;14.10;13.20;;;23.60;99.50;;;;;;3535792;40;21183;-61
2021/07/10 03:52:35;;;;;;;14.23;13.33;;;23.60;99.50;;;;;;3526410;40;20469;-60
2021/07/10 03:55:04;;;;;;;14.77;13.70;;;23.50;99.40;;;;;;3536174;40;20470;-61
2021/07/10 03:57:33;;;;;;;13.80;12.90;;;23.60;99.50;;;;;;3535697;40;20469;-61
2021/07/10 04:00:00;;;;;;;15.80;14.73;;;23.60;99.50;;;;;;3534960;40;20511;-61
2021/07/10 04:02:27;;;;;;;15.33;14.33;;;23.60;99.50;;;;;;3535080;40;20470;-61
2021/07/10 04:04:54;;;;;;;14.07;13.27;;;23.60;99.40;;;;;;3534550;40;20466;-61
2021/07/10 04:07:22;;;;;;;15.40;14.30;;;23.60;99.40;;;;;;3535547;40;20439;-61
2021/07/10 04:09:49;;;;;;;13.40;12.57;;;23.60;99.40;;;;;;3526486;40;20541;-61
2021/07/10 04:12:16;;;;;;;15.23;14.10;;;23.60;99.40;;;;;;3535274;40;20454;-61
2021/07/10 04:14:45;;;;;;;14.83;13.87;;;23.60;99.70;;;;;;3535068;40;20447;-61
2021/07/10 04:17:12;;;;;;;15.10;14.00;;;23.60;99.40;;;;;;3525978;40;20477;-61
2021/07/10 04:19:39;;;;;;;14.00;13.10;;;23.60;99.40;;;;;;3535556;40;20455;-61
2021/07/10 04:22:06;;;;;;;14.23;13.40;;;23.60;99.40;;;;;;3526000;40;20737;-61
2021/07/10 04:24:34;;;;;;;13.83;13.03;;;23.60;99.40;;;;;;3525487;40;20540;-61
2021/07/10 04:27:01;;;;;;;13.97;13.17;;;23.60;99.30;;;;;;3535628;40;20477;-60
2021/07/10 04:29:28;;;;;;;14.67;13.70;;;23.60;99.40;;;;;;3534897;40;20498;-61
2021/07/10 04:31:57;;;;;;;14.60;13.80;;;23.60;99.30;;;;;;3534884;40;20466;-60
2021/07/10 04:34:24;;;;;;;13.70;12.90;;;23.60;99.30;;;;;;3534919;40;20463;-61
2021/07/10 04:36:51;;;;;;;14.43;13.63;;;23.60;99.30;;;;;;3534505;40;20466;-61
2021/07/10 04:39:19;;;;;;;13.40;12.60;;;23.60;99.30;;;;;;3535239;40;20459;-61
2021/07/10 04:41:46;;;;;;;13.60;12.80;;;23.60;99.30;;;;;;3534800;40;20494;-61
2021/07/10 04:44:13;;;;;;;14.03;13.23;;;23.60;99.30;;;;;;3534938;40;21118;-61
2021/07/10 04:46:40;;;;;;;13.20;12.40;;;23.60;99.20;;;;;;3535036;40;20462;-61
2021/07/10 04:49:10;;;;;;;13.93;13.23;;;23.60;99.20;;;;;;3536068;40;20466;-61
2021/07/10 04:51:37;;;;;;;12.47;11.83;;;23.60;99.20;;;;;;3535077;40;20856;-61
2021/07/10 04:54:04;;;;;;;14.07;13.20;;;23.60;99.20;;;;;;3533503;40;20929;-61
2021/07/10 04:56:31;;;;;;;14.20;13.30;;;23.60;99.10;;;;;;3523128;40;20467;-61
2021/07/10 04:58:59;;;;;;;13.23;12.53;;;23.60;99.10;;;;;;3533566;40;21129;-61
2021/07/10 05:01:26;;;;;;;13.60;12.90;;;23.60;99.10;;;;;;3531263;40;21143;-61
2021/07/10 05:03:53;;;;;;;14.10;13.30;;;23.60;99.10;;;;;;3525923;40;20479;-61
2021/07/10 05:06:22;;;;;;;13.60;12.70;;;23.60;99.10;;;;;;3525341;40;20489;-61
2021/07/10 05:08:49;;;;;;;12.90;12.20;;;23.60;99.10;;;;;;3534525;40;20585;-61
2021/07/10 05:11:17;;;;;;;13.53;12.73;;;23.60;99.00;;;;;;3534342;40;20465;-61
2021/07/10 05:13:45;;;;;;;12.53;11.83;;;23.60;99.10;;;;;;3534429;40;20498;-61
2021/07/10 05:16:12;;;;;;;12.17;11.57;;;23.60;99.00;;;;;;3534123;40;20452;-61
2021/07/10 05:18:39;;;;;;;14.10;13.30;;;23.60;99.10;;;;;;3524132;40;20481;-61
2021/07/10 05:21:06;;;;;;;12.40;11.70;;;23.60;99.00;;;;;;3533413;40;20459;-61
2021/07/10 05:23:35;;;;;;;12.70;12.00;;;23.60;99.10;;;;;;3534835;40;20482;-61
2021/07/10 05:26:03;;;;;;;13.03;12.27;;;23.60;99.10;;;;;;3534491;40;21046;-59
2021/07/10 05:28:31;;;;;;;12.93;12.23;;;23.60;99.10;;;;;;3535423;40;20462;-61
2021/07/10 05:30:58;;;;;;;13.10;12.40;;;23.60;99.00;;;;;;3536073;40;20463;-61
2021/07/10 05:33:25;;;;;;;13.10;12.30;;;23.70;99.10;;;;;;3536397;40;20841;-61
2021/07/10 05:35:52;;;;;;;13.30;12.60;;;23.60;99.00;;;;;;3535561;40;20463;-61
2021/07/10 05:38:20;;;;;;;13.67;12.90;;;23.60;99.00;;;;;;3535414;40;20462;-61
2021/07/10 05:40:48;;;;;;;13.90;13.17;;;23.60;99.00;;;;;;3535488;40;20474;-61
2021/07/10 05:43:16;;;;;;;13.27;12.47;;;23.60;99.00;;;;;;3535510;40;20768;-61
2021/07/10 05:45:43;;;;;;;12.73;12.03;;;23.60;99.00;;;;;;3535106;40;20553;-61
2021/07/10 05:48:10;;;;;;;12.70;12.00;;;23.60;99.00;;;;;;3534717;40;20475;-61
2021/07/10 05:50:38;;;;;;;12.23;11.53;;;23.60;99.00;;;;;;3535614;40;21125;-61
2021/07/10 05:53:06;;;;;;;12.10;11.40;;;23.60;99.00;;;;;;3535136;40;20470;-61
2021/07/10 05:55:34;;;;;;;12.80;12.10;;;23.60;99.00;;;;;;3534617;40;20447;-60
2021/07/10 05:58:03;;;;;;;12.60;12.00;;;23.60;99.00;;;;;;3535384;40;20509;-61
2021/07/10 06:00:32;;;;;;;12.90;12.10;;;23.60;99.00;;;;;;3534947;40;20450;-60
2021/07/10 06:02:59;;;;;;;13.80;12.73;;;23.60;99.00;;;;;;3533892;40;20478;-61
2021/07/10 06:05:27;;;;;;;12.83;12.13;;;23.60;99.00;;;;;;3533742;40;20454;-61
2021/07/10 06:07:55;;;;;;;12.97;12.23;;;23.60;99.00;;;;;;3534187;40;20457;-61
2021/07/10 06:10:22;;;;;;;12.87;12.17;;;23.60;99.00;;;;;;3524712;40;20556;-61
2021/07/10 06:12:51;;;;;;;12.70;12.00;;;23.60;99.00;;;;;;3535034;40;20473;-60
2021/07/10 06:15:20;;;;;;;12.70;12.00;;;23.60;98.90;;;;;;3534093;40;20544;-61
2021/07/10 06:17:48;;;;;;;12.90;12.13;;;23.60;98.90;;;;;;3533658;40;20462;-61
2021/07/10 06:20:17;;;;;;;13.50;12.80;;;23.60;98.90;;;;;;3532910;40;20467;-61
2021/07/10 06:22:48;;;;;;;12.87;12.10;;;23.60;98.90;;;;;;3525164;40;20509;-61
2021/07/10 06:25:18;;;;;;;14.63;13.57;;;23.60;98.90;;;;;;3534659;40;20764;-61
2021/07/10 06:27:48;;;;;;;15.27;14.33;;;23.60;98.80;;;;;;3532770;40;20505;-61
2021/07/10 06:30:17;;;;;;;12.90;12.10;;;23.60;98.80;;;;;;3534195;40;20465;-60
2021/07/10 06:32:48;;;;;;;12.90;12.20;;;23.60;98.80;;;;;;3533728;40;20700;-60
2021/07/10 06:35:16;;;;;;;13.20;12.40;;;23.70;98.80;;;;;;3534049;40;20856;-60
2021/07/10 06:37:44;;;;;;;13.37;12.40;;;23.70;98.80;;;;;;3534040;40;20454;-61
2021/07/10 06:40:15;;;;;;;13.13;12.33;;;23.70;98.80;;;;;;3533958;40;20502;-61
2021/07/10 06:42:43;;;;;;;14.57;13.57;;;23.70;98.80;;;;;;3533463;40;20483;-59
2021/07/10 06:45:13;;;;;;;12.80;12.00;;;23.70;98.80;;;;;;3533304;40;20895;-61
2021/07/10 06:47:41;;;;;;;13.07;12.33;;;23.70;98.80;;;;;;3532190;40;20469;-61
2021/07/10 06:50:12;;;;;;;13.37;12.50;;;23.70;98.80;;;;;;3533844;40;20474;-61
2021/07/10 06:52:41;;;;;;;13.03;12.03;;;23.70;98.70;;;;;;3529094;40;20502;-61
2021/07/10 06:55:11;;;;;;;13.90;12.67;;;23.70;98.70;;;;;;3523664;40;20457;-60
2021/07/10 06:57:40;;;;;;;12.83;12.13;;;23.70;98.70;;;;;;3523336;40;20447;-61
2021/07/10 07:00:10;;;;;;;13.63;12.83;;;23.70;98.70;;;;;;3521777;40;20628;-61
2021/07/10 07:02:38;;;;;;;12.87;12.17;;;23.70;98.70;;;;;;3523057;40;21111;-61
2021/07/10 07:05:07;;;;;;;13.80;13.00;;;23.70;98.70;;;;;;3514504;40;20459;-61
2021/07/10 07:07:36;;;;;;;14.03;13.23;;;23.70;98.70;;;;;;3522358;40;20479;-61
2021/07/10 07:10:06;;;;;;;14.20;13.40;;;23.70;98.70;;;;;;3522337;40;20463;-61
2021/07/10 07:12:34;;;;;;;13.80;12.90;;;23.70;98.70;;;;;;3522917;40;20719;-61
2021/07/10 07:15:01;;;;;;;12.60;11.90;;;23.70;98.60;;;;;;3521048;40;20966;-61
2021/07/10 07:17:28;;;;;;;13.90;13.00;;;23.70;98.60;;;;;;3521566;40;20796;-61
2021/07/10 07:19:55;;;;;;;13.50;12.70;;;23.70;98.60;;;;;;3522289;40;20463;-61
2021/07/10 07:22:36;;;;;;;13.00;12.30;;;23.80;98.70;;;;;;3521893;40;20535;-61
2021/07/10 07:25:05;;;;;;;14.60;13.70;;;23.70;98.60;;;;;;3521044;40;20444;-61
2021/07/10 07:27:37;;;;;;;13.10;12.30;;;23.70;98.60;;;;;;3522878;40;20490;-61
2021/07/10 07:30:06;;;;;;;14.03;13.23;;;23.70;98.60;;;;;;3521877;40;20467;-61
2021/07/10 07:32:33;;;;;;;13.20;12.50;;;23.70;98.60;;;;;;3522021;40;20543;-61
2021/07/10 07:35:02;;;;;;;13.20;12.30;;;23.70;98.60;;;;;;3522748;40;20704;-61
2021/07/10 07:37:29;;;;;;;13.43;12.63;;;23.70;98.70;;;;;;3523023;40;20479;-60
2021/07/10 07:39:58;;;;;;;13.77;12.97;;;23.70;98.70;;;;;;3522056;40;20515;-60
2021/07/10 07:42:25;;;;;;;13.30;12.50;;;23.70;98.70;;;;;;3521733;40;21153;-62
2021/07/10 07:44:53;;;;;;;13.70;12.90;;;23.70;98.70;;;;;;3520613;40;20460;-62
2021/07/10 07:47:23;;;;;;;13.80;12.90;;;23.80;98.70;;;;;;3520278;40;20483;-62
2021/07/10 07:49:50;;;;;;;13.97;13.17;;;23.70;98.50;;;;;;3520809;40;20468;-62
2021/07/10 07:52:18;;;;;;;13.10;12.40;;;23.70;98.60;;;;;;3520288;40;20467;-62
2021/07/10 07:54:45;;;;;;;13.23;12.50;;;23.70;98.70;;;;;;3521948;40;20478;-62
2021/07/10 07:57:14;;;;;;;14.10;13.20;;;23.70;98.70;;;;;;3512671;40;20562;-62
2021/07/10 07:59:41;;;;;;;13.83;12.93;;;23.70;98.70;;;;;;3520935;40;20479;-62
2021/07/10 08:02:09;;;;;;;13.63;12.93;;;23.70;98.70;;;;;;3522103;40;20521;-62
2021/07/10 08:04:37;;;;;;;13.27;12.50;;;23.70;98.70;;;;;;3520442;40;20503;-62
2021/07/10 08:07:05;;;;;;;12.83;12.13;;;23.70;98.70;;;;;;3521635;40;20478;-62
2021/07/10 08:09:33;;;;;;;12.40;11.70;;;23.80;99.00;;;;;;3522533;40;20694;-62
2021/07/10 08:12:00;;;;;;;12.77;12.07;;;23.70;98.60;;;;;;3519766;40;20990;-62
2021/07/10 08:14:28;;;;;;;12.70;12.00;;;23.70;98.70;;;;;;3521326;40;21173;-62
2021/07/10 08:16:55;;;;;;;13.03;12.23;;;23.70;98.60;;;;;;3521579;40;20471;-62
2021/07/10 08:19:23;;;;;;;14.03;13.23;;;23.70;98.60;;;;;;3520538;40;20476;-62
2021/07/10 08:21:50;;;;;;;12.97;12.27;;;23.70;98.70;;;;;;3521010;40;20489;-62
2021/07/10 08:24:17;;;;;;;15.37;14.13;;;23.70;98.70;;;;;;3519799;40;20479;-61
2021/07/10 08:26:45;;;;;;;14.17;13.27;;;23.70;98.70;;;;;;3520620;40;20468;-61
2021/07/10 08:29:29;;;;;;;13.90;12.90;;;23.70;98.60;;;;;;3520784;40;20483;-61
2021/07/10 08:31:56;;;;;;;13.97;12.87;;;23.70;98.70;;;;;;3518508;40;20871;-60
2021/07/10 08:34:24;;;;;;;22.33;14.17;;;23.70;98.70;;;;;;3519938;40;20475;-61
2021/07/10 08:36:51;;;;;;;14.50;13.40;;;23.70;98.70;;;;;;3522174;40;20567;-61
2021/07/10 08:39:18;;;;;;;14.90;13.60;;;23.80;98.80;;;;;;3520918;40;20472;-59
2021/07/10 08:41:48;;;;;;;14.97;13.87;;;23.80;98.70;;;;;;3520639;40;21019;-60
2021/07/10 08:44:16;;;;;;;15.90;14.70;;;23.80;98.80;;;;;;3520309;40;20510;-61
2021/07/10 08:46:47;;;;;;;15.30;14.20;;;23.70;98.80;;;;;;3520655;40;20466;-61
2021/07/10 08:49:16;;;;;;;15.30;14.00;;;23.80;98.80;;;;;;3520418;40;20464;-60
2021/07/10 08:51:44;;;;;;;15.37;14.23;;;23.70;98.80;;;;;;3518643;40;20475;-61
2021/07/10 08:54:12;;;;;;;14.77;13.87;;;23.80;99.10;;;;;;3521687;40;20479;-61
2021/07/10 08:56:40;;;;;;;15.67;14.70;;;23.80;98.90;;;;;;3520020;40;20495;-61
2021/07/10 08:59:09;;;;;;;14.87;13.87;;;23.80;99.20;;;;;;3520641;40;20475;-60
2021/07/10 09:01:36;;;;;;;15.43;14.50;;;23.80;98.90;;;;;;3519871;40;20480;-61
2021/07/10 09:04:06;;;;;;;16.20;15.10;;;23.80;98.90;;;;;;3518248;40;21150;-61
2021/07/10 09:06:34;;;;;;;14.63;13.63;;;23.80;98.90;;;;;;3520161;40;20569;-60
2021/07/10 09:09:04;;;;;;;16.00;15.00;;;23.70;98.80;;;;;;3521287;40;20451;-60
2021/07/10 09:11:32;;;;;;;15.77;14.67;;;23.70;98.80;;;;;;3520247;40;20447;-61
2021/07/10 09:13:59;;;;;;;15.83;14.83;;;23.70;98.80;;;;;;3520670;40;20535;-61
2021/07/10 09:16:28;;;;;;;15.83;14.60;;;23.70;98.90;;;;;;3520881;40;20492;-61
2021/07/10 09:19:00;;;;;;;16.90;15.57;;;23.70;98.90;;;;;;3519812;40;20555;-61
2021/07/10 09:21:40;;;;;;;16.20;15.20;;;23.70;98.90;;;;;;3517982;40;20471;-61
2021/07/10 09:24:10;;;;;;;16.33;15.23;;;23.80;98.90;;;;;;3517079;40;20470;-61
2021/07/10 09:26:43;;;;;;;16.40;14.97;;;23.80;98.90;;;;;;3518789;40;20475;-61
2021/07/10 09:29:13;;;;;;;16.67;15.57;;;23.80;98.90;;;;;;3519530;40;20483;-61
2021/07/10 09:31:43;;;;;;;16.70;15.30;;;23.80;98.90;;;;;;3519760;40;20850;-60
2021/07/10 09:34:14;;;;;;;16.17;14.97;;;23.80;98.90;;;;;;3519811;40;21093;-61
2021/07/10 09:36:58;;;;;;;15.80;14.80;;;23.80;98.90;;;;;;3518671;40;20585;-61
2021/07/10 09:39:27;;;;;;;15.97;14.77;;;23.80;98.90;;;;;;3519444;40;20541;-61
2021/07/10 09:41:55;;;;;;;15.07;14.10;;;23.80;98.80;;;;;;3520235;40;20936;-61
2021/07/10 09:44:22;;;;;;;15.90;14.77;;;23.80;98.80;;;;;;3520029;40;20535;-61
2021/07/10 09:46:50;;;;;;;15.10;14.10;;;23.80;98.80;;;;;;3520884;40;20452;-61
2021/07/10 09:49:29;;;;;;;17.00;15.77;;;23.80;98.80;;;;;;3519600;40;20471;-61
2021/07/10 09:52:12;;;;;;;16.60;15.30;;;23.80;98.80;;;;;;3519308;40;20499;-61
2021/07/10 09:54:41;;;;;;;15.20;14.30;;;23.80;98.80;;;;;;3519093;40;20889;-61
2021/07/10 09:57:21;;;;;;;15.90;14.90;;;23.80;98.80;;;;;;3518465;40;20454;-61
2021/07/10 09:59:52;;;;;;;15.57;14.67;;;23.80;98.70;;;;;;3518708;40;20468;-61
2021/07/10 10:02:23;;;;;;;15.87;14.80;;;23.70;98.70;;;;;;3519195;40;20467;-59
2021/07/10 10:04:51;;;;;;;15.60;14.60;;;23.80;98.70;;;;;;3526874;40;20569;-61
2021/07/10 10:07:22;;;;;;;15.73;14.60;;;23.80;98.80;;;;;;3520409;40;20452;-60
2021/07/10 10:09:56;;;;;;;15.67;14.57;;;23.80;98.70;;;;;;3520284;40;20468;-61
2021/07/10 10:12:25;;;;;;;15.27;14.20;;;23.80;98.70;;;;;;3519105;40;20463;-60
2021/07/10 10:14:55;;;;;;;15.50;14.43;;;23.80;98.70;;;;;;3520920;40;20482;-61
2021/07/10 10:17:23;;;;;;;14.67;13.63;;;23.80;98.70;;;;;;3520801;40;20511;-61
2021/07/10 10:19:50;;;;;;;15.33;14.33;;;23.80;98.70;;;;;;3520650;40;20459;-61
2021/07/10 10:22:20;;;;;;;16.60;15.33;;;23.80;98.70;;;;;;3519907;40;20535;-60
2021/07/10 10:24:50;;;;;;;15.77;14.57;;;23.80;98.70;;;;;;3519551;40;20511;-60
2021/07/10 10:27:19;;;;;;;14.90;13.80;;;23.80;98.70;;;;;;3517989;40;20460;-60
2021/07/10 10:29:46;;;;;;;14.60;13.50;;;23.80;98.80;;;;;;3520001;40;20468;-60
2021/07/10 10:32:14;;;;;;;15.10;14.00;;;23.80;98.80;;;;;;3519901;40;20451;-61
2021/07/10 10:34:42;;;;;;;16.40;15.00;;;23.80;98.90;;;;;;3519406;40;20479;-61
2021/07/10 10:37:11;;;;;;;15.50;14.50;;;23.80;98.90;;;;;;3518806;40;20467;-61
2021/07/10 10:39:48;;;;;;;15.60;14.50;;;23.80;98.90;;;;;;3519374;40;20515;-61
2021/07/10 10:42:20;;;;;;;16.63;15.63;;;23.80;98.90;;;;;;3518965;40;20458;-59
2021/07/10 10:44:50;;;;;;;15.70;14.60;;;23.80;98.90;;;;;;3520409;40;20495;-61
2021/07/10 10:47:23;;;;;;;14.70;13.80;;;23.80;98.90;;;;;;3520548;40;20455;-61
2021/07/10 10:49:51;;;;;;;14.83;13.93;;;23.80;98.90;;;;;;3520435;40;20466;-61
2021/07/10 10:52:25;;;;;;;15.20;14.10;;;23.80;98.80;;;;;;3519485;40;20474;-60
2021/07/10 10:54:55;;;;;;;14.80;13.87;;;23.80;98.80;;;;;;3520507;40;20503;-61
2021/07/10 10:57:38;;;;;;;14.00;13.10;;;23.80;98.80;;;;;;3520104;40;20452;-60
2021/07/10 11:00:27;;;;;;;14.90;13.90;;;23.80;98.80;;;;;;3521103;40;20470;-61
2021/07/10 11:03:03;;;;;;;15.63;14.63;;;23.80;98.80;;;;;;3519354;40;20464;-61
2021/07/10 11:05:46;;;;;;;15.50;14.13;;;23.80;98.70;;;;;;3518560;40;20460;-61
2021/07/10 11:08:38;;;;;;;14.70;13.70;;;23.80;98.70;;;;;;3518458;40;20463;-61
2021/07/10 11:11:31;;;;;;;15.90;14.70;;;23.80;98.70;;;;;;3519746;40;20567;-61
2021/07/10 11:14:08;;;;;;;14.57;13.67;;;23.80;99.00;;;;;;3520796;40;21098;-60
2021/07/10 11:16:36;;;;;;;14.70;13.80;;;23.80;98.60;;;;;;3519551;40;20519;-61
2021/07/10 11:19:06;;;;;;;15.43;14.53;;;23.80;98.60;;;;;;3518978;40;20486;-61
2021/07/10 11:21:44;;;;;;;14.70;13.70;;;23.80;98.60;;;;;;3518648;40;21275;-61
2021/07/10 11:24:25;;;;;;;15.00;13.83;;;23.80;98.60;;;;;;3522337;40;20505;-61
2021/07/10 11:27:25;;;;;;;15.00;14.00;;;23.80;98.50;;;;;;3527144;40;20549;-61
2021/07/10 11:30:18;;;;;;;15.93;15.03;;;23.80;98.50;;;;;;3528155;40;20455;-61
2021/07/10 11:32:47;;;;;;;13.67;12.83;;;23.80;98.50;;;;;;3529096;40;20861;-61
2021/07/10 11:35:36;;;;;;;15.40;14.43;;;23.80;98.40;;;;;;3529084;40;20462;-60
2021/07/10 11:38:04;;;;;;;15.70;14.70;;;23.80;98.40;;;;;;3520883;40;20486;-61
2021/07/10 11:40:40;;;;;;;14.57;13.67;;;23.80;98.30;;;;;;3530372;40;20470;-61
2021/07/10 11:43:11;;;;;;;14.93;14.13;;;23.80;98.30;;;;;;3529491;40;20470;-61
2021/07/10 11:45:49;;;;;;;14.50;13.70;;;23.70;98.20;;;;;;3528693;40;20463;-61
2021/07/10 11:48:24;;;;;;;14.73;13.93;;;23.80;98.20;;;;;;3529108;40;20534;-61
2021/07/10 11:51:05;;;;;;;14.37;13.53;;;23.80;98.10;;;;;;3529296;40;20477;-61
2021/07/10 11:53:34;;;;;;;15.53;14.70;;;23.80;98.10;;;;;;3529787;40;20455;-61
2021/07/10 11:56:01;;;;;;;15.07;14.27;;;23.80;98.00;;;;;;3530303;40;20941;-61
2021/07/10 11:58:31;;;;;;;14.90;14.13;;;23.80;98.00;;;;;;3529952;40;20467;-61
2021/07/10 12:01:04;;;;;;;14.80;13.97;;;23.80;97.90;;;;;;3530203;40;20781;-60
2021/07/10 12:03:32;;;;;;;14.67;13.77;;;23.80;97.90;;;;;;3529156;40;20492;-61
2021/07/10 12:06:03;;;;;;;14.20;13.40;;;23.80;97.90;;;;;;3530601;40;20455;-61
2021/07/10 12:08:32;;;;;;;15.27;14.40;;;23.80;97.80;;;;;;3529760;40;20466;-60
2021/07/10 12:10:59;;;;;;;15.37;14.47;;;23.80;97.80;;;;;;3520854;40;20713;-61
2021/07/10 12:13:34;;;;;;;16.00;15.00;;;23.80;97.80;;;;;;3498428;40;1104472;-61
2021/07/10 12:16:05;;;;;;;16.13;15.13;;;23.80;97.80;;;;;;3519373;40;20240;-60
2021/07/10 12:18:38;;;;;;;14.23;13.50;;;23.80;97.80;;;;;;3519684;40;20463;-61
2021/07/10 12:21:09;;;;;;;15.47;14.57;;;23.80;97.80;;;;;;3519352;40;20467;-61
2021/07/10 12:23:40;;;;;;;15.97;15.07;;;23.80;97.80;;;;;;3519497;40;20491;-61
2021/07/10 12:26:13;;;;;;;15.27;14.33;;;23.80;97.80;;;;;;3519524;40;20471;-61
2021/07/10 12:28:45;;;;;;;15.97;14.87;;;23.80;97.80;;;;;;3512858;40;20499;-60
2021/07/10 12:31:16;;;;;;;15.40;14.50;;;23.80;97.80;;;;;;3524199;40;20494;-61
2021/07/10 12:33:46;;;;;;;16.43;15.33;;;23.80;97.80;;;;;;3510641;40;20476;-59
2021/07/10 12:36:23;;;;;;;15.47;14.57;;;23.80;97.80;;;;;;3517815;40;20471;-61